createdAt,value
2019-04-05T00:06:10.000Z,47.1
2019-04-05T00:16:10.000Z,47.1
2019-04-05T00:26:10.000Z,47.3
2019-04-05T00:36:12.000Z,47.2
2019-04-05T00:46:11.000Z,47.2
2019-04-05T00:56:11.000Z,47.3
2019-04-05T01:06:11.000Z,47.2
2019-04-05T01:16:11.000Z,47
2019-04-05T01:26:11.000Z,47.2
2019-04-05T01:36:11.000Z,47
2019-04-05T01:46:11.000Z,47.1
2019-04-05T01:56:12.000Z,47.2
2019-04-05T02:06:12.000Z,47.1
2019-04-05T02:16:11.000Z,47
2019-04-05T02:26:11.000Z,47.2
2019-04-05T02:46:11.000Z,47
2019-04-05T02:56:13.000Z,47.1
2019-04-05T03:06:13.000Z,47.2
2019-04-05T03:16:11.000Z,47
2019-04-05T03:26:11.000Z,47
2019-04-05T03:36:12.000Z,47
2019-04-05T03:46:11.000Z,47.1
2019-04-05T03:56:11.000Z,47
2019-04-05T04:06:11.000Z,46.9
2019-04-05T04:16:11.000Z,47
2019-04-05T04:26:13.000Z,46.9
2019-04-05T04:36:11.000Z,47
2019-04-05T04:46:15.000Z,46.8
2019-04-05T04:56:12.000Z,47
2019-04-05T05:06:11.000Z,46.9
2019-04-05T05:16:11.000Z,46.9
2019-04-05T05:26:11.000Z,46.8
2019-04-05T05:36:11.000Z,47
2019-04-05T05:46:11.000Z,46.9
2019-04-05T05:56:11.000Z,46.9
2019-04-05T06:06:11.000Z,46.8
2019-04-05T06:16:11.000Z,46.7
2019-04-05T06:26:11.000Z,46.8
2019-04-05T06:36:11.000Z,46.8
2019-04-05T06:46:14.000Z,46.7
2019-04-05T06:56:11.000Z,46.8
2019-04-05T07:06:11.000Z,46.7
2019-04-05T07:16:12.000Z,46.7
2019-04-05T07:26:11.000Z,46.7
2019-04-05T07:36:12.000Z,46.7
2019-04-05T07:56:12.000Z,46.7
2019-04-05T08:06:12.000Z,46.8
2019-04-05T08:16:12.000Z,46.7
2019-04-05T08:26:12.000Z,46.8
2019-04-05T08:36:12.000Z,46.8
2019-04-05T08:46:12.000Z,46.8
2019-04-05T08:56:12.000Z,46.8
2019-04-05T09:06:13.000Z,46.8
2019-04-05T09:16:12.000Z,46.9
2019-04-05T09:26:12.000Z,46.8
2019-04-05T09:36:12.000Z,46.9
2019-04-05T09:46:14.000Z,46.9
2019-04-05T09:56:12.000Z,46.7
2019-04-05T10:06:12.000Z,46.9
2019-04-05T10:16:12.000Z,46.9
2019-04-05T10:26:12.000Z,46.8
2019-04-05T10:36:12.000Z,46.9
2019-04-05T10:46:12.000Z,46.7
2019-04-05T10:56:12.000Z,46.9
2019-04-05T11:06:12.000Z,46.9
2019-04-05T11:16:12.000Z,46.9
2019-04-05T11:26:12.000Z,47
2019-04-05T11:36:13.000Z,47
2019-04-05T11:46:12.000Z,47
2019-04-05T11:56:12.000Z,47
2019-04-05T12:06:12.000Z,46.9
2019-04-05T12:16:13.000Z,47
2019-04-05T12:26:12.000Z,47
2019-04-05T12:36:13.000Z,47
2019-04-05T12:46:12.000Z,47
2019-04-05T12:56:15.000Z,47.1
2019-04-05T13:06:12.000Z,47.2
2019-04-05T13:16:12.000Z,47
2019-04-05T13:36:14.000Z,47.2
2019-04-05T13:56:12.000Z,47.1
2019-04-05T14:06:12.000Z,47.1
2019-04-05T14:26:12.000Z,47.2
2019-04-05T14:36:12.000Z,47.1
2019-04-05T14:46:13.000Z,47.2
2019-04-05T14:56:13.000Z,47.3
2019-04-05T15:06:15.000Z,47.2
2019-04-05T15:16:13.000Z,47.1
2019-04-05T15:26:14.000Z,47.1
2019-04-05T15:36:14.000Z,47
2019-04-05T15:46:13.000Z,47.2
2019-04-05T15:56:13.000Z,47.2
2019-04-05T16:06:13.000Z,47.2
2019-04-05T16:16:13.000Z,47.3
2019-04-05T16:26:16.000Z,47.2
2019-04-05T16:36:13.000Z,47.2
2019-04-05T16:46:13.000Z,47.2
2019-04-05T16:56:14.000Z,47.3
2019-04-05T17:06:13.000Z,47.2
2019-04-05T17:16:13.000Z,47.2
2019-04-05T17:26:13.000Z,47.3
2019-04-05T17:36:13.000Z,47.3
2019-04-05T17:46:13.000Z,47.2
2019-04-05T17:56:13.000Z,47.3
2019-04-05T18:06:13.000Z,47.1
2019-04-05T18:26:13.000Z,47.2
2019-04-05T18:36:14.000Z,47.1
2019-04-05T18:46:13.000Z,47.2
2019-04-05T18:56:13.000Z,47.3
2019-04-05T19:06:13.000Z,47.2
2019-04-05T19:16:13.000Z,47.2
2019-04-05T19:26:13.000Z,47.3
2019-04-05T19:56:14.000Z,47.1
2019-04-05T20:06:15.000Z,47.1
2019-04-05T20:16:13.000Z,47.3
2019-04-05T20:26:13.000Z,47.2
2019-04-05T20:36:13.000Z,47.3
2019-04-05T20:46:13.000Z,47.3
2019-04-05T20:56:13.000Z,47.3
2019-04-05T21:06:15.000Z,47.1
2019-04-05T21:16:13.000Z,47.3
2019-04-05T21:26:13.000Z,47.3
2019-04-05T21:36:13.000Z,47.1
2019-04-05T21:46:14.000Z,47.2
2019-04-05T21:56:14.000Z,47.2
2019-04-05T22:16:14.000Z,47.3
2019-04-05T22:26:14.000Z,47.4
2019-04-05T22:36:14.000Z,47.4
2019-04-05T22:46:14.000Z,47.3
2019-04-05T22:56:14.000Z,47.1
2019-04-05T23:06:14.000Z,47.3
2019-04-05T23:16:14.000Z,47.3
2019-04-05T23:26:14.000Z,47.3
2019-04-05T23:36:14.000Z,47.2
2019-04-05T23:46:14.000Z,47.2
2019-04-05T23:56:14.000Z,47.2
